Time;durP1;ratioP1;P1;durP2;ratioP2;P2;SDS_P1;SDS_P2;PMS_P1;PMS_P2;Temp;Humidity;BMP_temperature;BMP_pressure;BME280_temperature;BME280_humidity;BME280_pressure;Samples;Min_cycle;Max_cycle;Signal;HPM_P1;HPM_P2
2023/08/23 00:00:51;;;;;;;16.67;7.75;;;;;;;;;;5072216;28;20123;-67
2023/08/23 00:03:16;;;;;;;12.93;8.38;;;;;;;;;;5072834;28;20021;-66
2023/08/23 00:05:44;;;;;;;13.25;8.48;;;;;;;;;;5071119;28;20099;-67
2023/08/23 00:08:10;;;;;;;15.23;9.88;;;;;;;;;;5073000;28;20480;-68
2023/08/23 00:10:35;;;;;;;14.70;9.52;;;;;;;;;;5069842;28;20028;-67
2023/08/23 00:13:00;;;;;;;20.05;9.20;;;;;;;;;;5072533;28;20032;-67
2023/08/23 00:15:25;;;;;;;14.57;8.85;;;;;;;;;;5073757;28;20375;-68
2023/08/23 00:17:51;;;;;;;11.35;6.95;;;;;;;;;;5073348;28;20040;-67
2023/08/23 00:20:16;;;;;;;8.57;5.82;;;;;;;;;;5071651;28;20361;-67
2023/08/23 00:22:41;;;;;;;12.13;6.30;;;;;;;;;;5071011;28;20029;-67
2023/08/23 00:25:07;;;;;;;12.98;6.15;;;;;;;;;;5071728;28;20041;-66
2023/08/23 00:27:33;;;;;;;12.57;7.43;;;;;;;;;;5070489;28;20027;-67
2023/08/23 00:29:58;;;;;;;14.90;8.65;;;;;;;;;;5072022;28;20099;-66
2023/08/23 00:32:23;;;;;;;13.60;9.17;;;;;;;;;;5071187;28;20017;-67
2023/08/23 00:34:48;;;;;;;18.00;10.68;;;;;;;;;;5070055;28;20050;-66
2023/08/23 00:37:13;;;;;;;16.48;11.57;;;;;;;;;;5071568;28;20032;-66
2023/08/23 00:39:39;;;;;;;26.25;14.30;;;;;;;;;;5071325;28;20028;-67
2023/08/23 00:42:04;;;;;;;22.77;15.20;;;;;;;;;;5071941;28;20115;-67
2023/08/23 00:44:29;;;;;;;19.77;15.10;;;;;;;;;;5072198;28;20033;-66
2023/08/23 00:46:54;;;;;;;17.10;11.98;;;;;;;;;;5070501;28;20029;-67
2023/08/23 00:49:20;;;;;;;23.20;13.10;;;;;;;;;;5071654;28;20362;-66
2023/08/23 00:51:46;;;;;;;17.85;10.43;;;;;;;;;;5069681;28;20522;-67
2023/08/23 00:54:12;;;;;;;18.30;10.40;;;;;;;;;;5071493;28;20082;-67
2023/08/23 00:56:38;;;;;;;15.48;9.18;;;;;;;;;;5071916;28;20427;-66
2023/08/23 00:59:03;;;;;;;18.17;10.25;;;;;;;;;;5070612;28;20449;-66
2023/08/23 01:04:31;;;;;;;16.17;10.40;;;;;;;;;;5075169;22;20094;-65
2023/08/23 01:07:05;;;;;;;17.75;8.70;;;;;;;;;;5050978;28;20013;-65
2023/08/23 01:09:40;;;;;;;13.20;8.18;;;;;;;;;;5048767;28;20071;-63
2023/08/23 01:12:11;;;;;;;12.85;7.75;;;;;;;;;;5052679;28;20491;-62
2023/08/23 01:14:36;;;;;;;17.60;9.50;;;;;;;;;;5052241;28;20476;-64
2023/08/23 01:17:02;;;;;;;15.40;9.70;;;;;;;;;;5052176;28;20028;-62
2023/08/23 01:19:39;;;;;;;18.33;10.82;;;;;;;;;;5052186;28;20017;-62
2023/08/23 01:22:05;;;;;;;11.93;8.60;;;;;;;;;;5049713;28;20492;-63
2023/08/23 01:24:31;;;;;;;12.03;7.77;;;;;;;;;;5050414;28;20021;-62
2023/08/23 01:26:56;;;;;;;12.87;8.90;;;;;;;;;;5047775;28;20020;-62
2023/08/23 01:29:21;;;;;;;11.57;7.80;;;;;;;;;;5049360;28;20067;-63
2023/08/23 01:31:48;;;;;;;12.83;8.60;;;;;;;;;;5052492;28;20070;-62
2023/08/23 01:34:20;;;;;;;22.67;14.60;;;;;;;;;;5051035;28;20522;-64
2023/08/23 01:36:45;;;;;;;23.37;16.60;;;;;;;;;;5052112;28;20021;-62
2023/08/23 01:39:11;;;;;;;20.87;14.37;;;;;;;;;;5051568;28;20530;-63
2023/08/23 01:41:37;;;;;;;22.47;14.20;;;;;;;;;;5051845;28;20020;-63
2023/08/23 01:44:02;;;;;;;18.13;11.83;;;;;;;;;;5050708;28;20071;-62
2023/08/23 01:46:27;;;;;;;17.67;12.10;;;;;;;;;;5051512;28;20103;-62
2023/08/23 01:48:53;;;;;;;17.80;12.10;;;;;;;;;;5051300;28;20056;-62
2023/08/23 01:51:18;;;;;;;25.13;15.43;;;;;;;;;;5051468;28;20029;-62
2023/08/23 01:53:43;;;;;;;26.17;14.93;;;;;;;;;;5051440;28;20365;-62
2023/08/23 01:56:08;;;;;;;26.33;15.63;;;;;;;;;;5051431;28;20086;-62
2023/08/23 01:58:33;;;;;;;27.67;16.10;;;;;;;;;;5051099;28;20025;-62
2023/08/23 02:00:59;;;;;;;28.20;14.90;;;;;;;;;;5050910;28;20029;-62
2023/08/23 02:03:24;;;;;;;25.07;13.83;;;;;;;;;;5044637;28;20123;-64
2023/08/23 02:05:49;;;;;;;27.63;17.00;;;;;;;;;;5040900;28;20036;-62
2023/08/23 02:08:15;;;;;;;24.17;15.67;;;;;;;;;;5033805;28;20014;-64
2023/08/23 02:10:41;;;;;;;28.83;16.33;;;;;;;;;;5039416;28;20037;-63
2023/08/23 02:13:06;;;;;;;26.37;16.80;;;;;;;;;;5038465;28;20454;-63
2023/08/23 02:15:32;;;;;;;28.10;16.07;;;;;;;;;;5034618;28;20025;-63
2023/08/23 02:17:57;;;;;;;27.63;15.40;;;;;;;;;;5040707;28;20033;-63
2023/08/23 02:20:22;;;;;;;27.60;14.73;;;;;;;;;;5031303;28;20047;-63
2023/08/23 02:22:48;;;;;;;24.40;14.17;;;;;;;;;;5043965;28;20035;-62
2023/08/23 02:25:13;;;;;;;24.60;15.33;;;;;;;;;;5033459;28;20378;-62
2023/08/23 02:27:38;;;;;;;27.80;16.93;;;;;;;;;;5036568;28;20457;-64
2023/08/23 02:30:04;;;;;;;33.47;17.67;;;;;;;;;;5032763;28;20410;-62
2023/08/23 02:32:29;;;;;;;34.80;19.03;;;;;;;;;;5047692;28;20369;-63
2023/08/23 02:34:54;;;;;;;23.63;14.70;;;;;;;;;;5042765;28;20033;-63
2023/08/23 02:37:19;;;;;;;16.53;10.07;;;;;;;;;;5039523;28;20036;-62
2023/08/23 02:39:44;;;;;;;29.10;19.00;;;;;;;;;;5033212;28;20021;-62
2023/08/23 02:42:10;;;;;;;29.48;17.25;;;;;;;;;;5031823;28;20017;-63
2023/08/23 02:44:35;;;;;;;29.80;17.08;;;;;;;;;;5031034;28;20470;-62
2023/08/23 02:47:00;;;;;;;28.35;16.60;;;;;;;;;;5034207;28;20405;-63
2023/08/23 02:49:25;;;;;;;33.63;19.02;;;;;;;;;;5041289;28;20029;-64
2023/08/23 02:51:50;;;;;;;38.08;19.75;;;;;;;;;;5038870;28;20430;-63
2023/08/23 02:54:16;;;;;;;17.08;10.52;;;;;;;;;;5043978;28;20420;-63
2023/08/23 02:56:41;;;;;;;16.30;7.78;;;;;;;;;;5035811;28;20697;-63
2023/08/23 02:59:06;;;;;;;15.82;8.57;;;;;;;;;;5037665;28;20025;-63
2023/08/23 03:01:31;;;;;;;20.98;11.00;;;;;;;;;;5035052;28;20044;-64
2023/08/23 03:03:57;;;;;;;23.23;13.18;;;;;;;;;;5039590;28;20100;-63
2023/08/23 03:06:22;;;;;;;23.77;13.68;;;;;;;;;;5042705;28;20036;-64
2023/08/23 03:08:47;;;;;;;28.70;15.52;;;;;;;;;;5038592;28;20021;-64
2023/08/23 03:11:12;;;;;;;24.60;15.63;;;;;;;;;;5034829;28;20017;-63
2023/08/23 03:13:38;;;;;;;27.77;16.60;;;;;;;;;;5039461;28;20047;-63
2023/08/23 03:16:03;;;;;;;31.27;17.27;;;;;;;;;;5038938;28;20071;-63
2023/08/23 03:18:29;;;;;;;33.72;18.67;;;;;;;;;;5037860;28;20025;-64
2023/08/23 03:20:54;;;;;;;35.97;19.88;;;;;;;;;;5043562;28;20021;-63
2023/08/23 03:23:20;;;;;;;35.38;19.42;;;;;;;;;;5035432;28;20039;-63
2023/08/23 03:25:46;;;;;;;27.65;17.98;;;;;;;;;;5049198;28;20079;-63
2023/08/23 03:28:12;;;;;;;32.42;16.42;;;;;;;;;;5041328;28;20013;-63
2023/08/23 03:30:37;;;;;;;27.83;15.73;;;;;;;;;;5034884;28;20477;-64
2023/08/23 03:33:02;;;;;;;24.50;15.45;;;;;;;;;;5034687;28;20531;-63
2023/08/23 03:35:28;;;;;;;21.50;14.27;;;;;;;;;;5035155;28;20542;-64
2023/08/23 03:37:53;;;;;;;25.70;14.23;;;;;;;;;;5034839;28;20028;-63
2023/08/23 03:40:18;;;;;;;19.70;12.63;;;;;;;;;;5044630;28;20020;-64
2023/08/23 03:42:43;;;;;;;24.83;12.63;;;;;;;;;;5044640;28;20134;-63
2023/08/23 03:45:09;;;;;;;21.90;12.18;;;;;;;;;;5035215;28;20021;-63
2023/08/23 03:47:34;;;;;;;20.88;12.48;;;;;;;;;;5036307;28;20021;-63
2023/08/23 03:49:59;;;;;;;25.75;15.82;;;;;;;;;;5041213;28;20028;-63
2023/08/23 03:52:24;;;;;;;24.67;14.93;;;;;;;;;;5041053;28;20092;-65
2023/08/23 03:54:50;;;;;;;29.27;15.68;;;;;;;;;;5034657;28;20164;-63
2023/08/23 03:57:15;;;;;;;24.48;15.25;;;;;;;;;;5041153;28;20044;-63
2023/08/23 03:59:40;;;;;;;32.28;16.75;;;;;;;;;;5038962;28;20022;-64
2023/08/23 04:02:05;;;;;;;30.42;18.33;;;;;;;;;;5048483;28;20024;-63
2023/08/23 04:04:31;;;;;;;34.40;20.45;;;;;;;;;;5041795;28;20054;-63
2023/08/23 04:06:56;;;;;;;39.80;21.90;;;;;;;;;;5040901;28;20077;-63
2023/08/23 04:09:21;;;;;;;44.17;22.10;;;;;;;;;;5041376;28;20041;-63
2023/08/23 04:11:47;;;;;;;42.25;23.00;;;;;;;;;;5036545;28;20021;-63
2023/08/23 04:14:12;;;;;;;31.02;19.60;;;;;;;;;;5043921;28;20052;-63
2023/08/23 04:16:37;;;;;;;31.25;17.45;;;;;;;;;;5045560;28;20033;-64
2023/08/23 04:19:02;;;;;;;29.33;17.77;;;;;;;;;;5037467;28;20029;-63
2023/08/23 04:21:28;;;;;;;29.48;18.00;;;;;;;;;;5042313;28;20033;-65
2023/08/23 04:23:53;;;;;;;33.08;19.33;;;;;;;;;;5033444;28;20112;-63
2023/08/23 04:26:19;;;;;;;36.42;18.40;;;;;;;;;;5031816;28;20022;-64
2023/08/23 04:28:45;;;;;;;32.22;18.02;;;;;;;;;;5037120;28;20022;-63
2023/08/23 04:31:10;;;;;;;28.08;17.52;;;;;;;;;;5049899;28;20162;-64
2023/08/23 04:33:35;;;;;;;26.17;16.50;;;;;;;;;;5041326;28;20484;-65
2023/08/23 04:36:02;;;;;;;28.30;16.92;;;;;;;;;;5042704;28;20420;-63
2023/08/23 04:38:27;;;;;;;29.92;17.25;;;;;;;;;;5037292;28;20036;-63
2023/08/23 04:41:05;;;;;;;27.10;17.27;;;;;;;;;;5040407;28;20484;-66
2023/08/23 04:43:30;;;;;;;28.75;17.05;;;;;;;;;;5040926;28;20052;-66
2023/08/23 04:45:56;;;;;;;28.98;17.33;;;;;;;;;;5032997;28;20029;-66
2023/08/23 04:48:21;;;;;;;31.33;17.17;;;;;;;;;;5033216;28;20108;-66
2023/08/23 04:50:53;;;;;;;27.10;17.33;;;;;;;;;;5031525;28;20661;-66
2023/08/23 04:53:19;;;;;;;28.38;18.02;;;;;;;;;;5032314;28;20028;-66
2023/08/23 04:55:44;;;;;;;31.33;17.70;;;;;;;;;;5033322;28;20030;-66
2023/08/23 04:58:09;;;;;;;26.85;17.38;;;;;;;;;;5032668;28;20091;-66
2023/08/23 05:00:34;;;;;;;27.20;17.60;;;;;;;;;;5032068;28;20163;-66
2023/08/23 05:03:00;;;;;;;26.92;15.63;;;;;;;;;;5033735;28;20469;-66
2023/08/23 05:05:25;;;;;;;27.48;15.20;;;;;;;;;;5036214;28;20037;-66
2023/08/23 05:07:50;;;;;;;26.80;15.30;;;;;;;;;;5031958;28;20380;-66
2023/08/23 05:10:15;;;;;;;26.55;15.65;;;;;;;;;;5030092;28;20068;-66
2023/08/23 05:12:41;;;;;;;23.55;15.50;;;;;;;;;;5029509;28;20021;-66
2023/08/23 05:15:06;;;;;;;27.15;15.15;;;;;;;;;;5028401;28;20029;-67
2023/08/23 05:17:31;;;;;;;32.20;15.90;;;;;;;;;;5044215;28;20041;-67
2023/08/23 05:19:57;;;;;;;29.85;15.95;;;;;;;;;;5052292;28;20028;-67
2023/08/23 05:22:22;;;;;;;25.40;15.82;;;;;;;;;;5039814;28;20101;-67
2023/08/23 05:24:47;;;;;;;26.10;14.82;;;;;;;;;;5035865;28;20040;-67
2023/08/23 05:27:12;;;;;;;24.88;14.32;;;;;;;;;;5032412;28;20409;-67
2023/08/23 05:29:38;;;;;;;24.75;14.18;;;;;;;;;;5033226;28;20441;-67
2023/08/23 05:32:03;;;;;;;26.67;14.52;;;;;;;;;;5033321;28;20465;-67
2023/08/23 05:34:28;;;;;;;22.67;12.93;;;;;;;;;;5035419;28;20100;-67
2023/08/23 05:36:53;;;;;;;24.35;14.35;;;;;;;;;;5051848;28;20024;-67
2023/08/23 05:39:19;;;;;;;24.65;14.32;;;;;;;;;;5044630;28;20028;-67
2023/08/23 05:41:44;;;;;;;28.40;15.25;;;;;;;;;;5033573;28;20041;-67
2023/08/23 05:44:09;;;;;;;25.35;14.63;;;;;;;;;;5032792;28;20512;-67
2023/08/23 05:46:35;;;;;;;27.13;14.85;;;;;;;;;;5032827;28;20032;-67
2023/08/23 05:49:00;;;;;;;23.65;14.63;;;;;;;;;;5032922;28;20025;-64
2023/08/23 05:51:25;;;;;;;25.92;15.93;;;;;;;;;;5033394;28;20092;-67
2023/08/23 05:53:50;;;;;;;24.80;15.27;;;;;;;;;;5033372;28;20026;-67
2023/08/23 05:56:16;;;;;;;22.92;14.77;;;;;;;;;;5032879;28;20031;-67
2023/08/23 05:58:41;;;;;;;27.08;14.80;;;;;;;;;;5032733;28;20025;-67
2023/08/23 06:01:06;;;;;;;23.63;14.98;;;;;;;;;;5033042;28;20026;-67
2023/08/23 06:03:31;;;;;;;25.13;15.00;;;;;;;;;;5032652;28;20478;-67
2023/08/23 06:05:56;;;;;;;25.50;15.38;;;;;;;;;;5032578;28;20033;-67
2023/08/23 06:08:22;;;;;;;22.95;14.60;;;;;;;;;;5032796;28;20013;-67
2023/08/23 06:10:47;;;;;;;25.00;14.80;;;;;;;;;;5032502;28;20024;-67
2023/08/23 06:13:12;;;;;;;29.80;15.20;;;;;;;;;;5032450;28;20010;-67
2023/08/23 06:15:38;;;;;;;27.73;15.00;;;;;;;;;;5032471;28;20524;-67
2023/08/23 06:18:03;;;;;;;25.63;14.30;;;;;;;;;;5035346;28;20104;-67
2023/08/23 06:20:28;;;;;;;26.05;15.15;;;;;;;;;;5051105;28;20092;-68
2023/08/23 06:22:54;;;;;;;37.70;16.58;;;;;;;;;;5047425;28;20036;-67
2023/08/23 06:25:19;;;;;;;24.30;15.45;;;;;;;;;;5036332;28;20055;-67
2023/08/23 06:27:45;;;;;;;21.60;14.30;;;;;;;;;;5051215;28;20021;-67
2023/08/23 06:30:10;;;;;;;21.50;13.48;;;;;;;;;;5047520;28;20116;-67
2023/08/23 06:32:36;;;;;;;27.27;14.38;;;;;;;;;;5046596;28;20019;-67
2023/08/23 06:35:01;;;;;;;23.80;14.43;;;;;;;;;;5050852;28;20061;-67
2023/08/23 06:37:26;;;;;;;23.42;15.02;;;;;;;;;;5050986;28;20086;-67
2023/08/23 06:39:51;;;;;;;25.17;14.55;;;;;;;;;;5039175;28;20391;-67
2023/08/23 06:42:17;;;;;;;24.90;15.20;;;;;;;;;;5032340;28;20026;-67
2023/08/23 06:44:43;;;;;;;24.38;13.40;;;;;;;;;;5031790;28;20029;-66
2023/08/23 06:47:08;;;;;;;25.02;13.57;;;;;;;;;;5040674;28;20021;-67
2023/08/23 06:49:33;;;;;;;24.60;13.52;;;;;;;;;;5040195;28;20009;-67
2023/08/23 06:51:58;;;;;;;25.23;13.45;;;;;;;;;;5032127;28;20025;-67
2023/08/23 06:54:24;;;;;;;25.92;14.00;;;;;;;;;;5032082;28;20021;-67
2023/08/23 06:56:49;;;;;;;27.98;14.68;;;;;;;;;;5032115;28;20018;-67
2023/08/23 06:59:14;;;;;;;28.33;14.48;;;;;;;;;;5038141;28;20100;-64
2023/08/23 07:01:39;;;;;;;23.75;14.10;;;;;;;;;;5042807;28;20028;-65
2023/08/23 07:04:04;;;;;;;26.67;14.32;;;;;;;;;;5038961;28;20042;-65
2023/08/23 07:06:31;;;;;;;30.52;14.95;;;;;;;;;;5050547;28;20013;-64
2023/08/23 07:08:56;;;;;;;33.13;15.65;;;;;;;;;;5043441;28;20013;-65
2023/08/23 07:11:21;;;;;;;31.17;15.48;;;;;;;;;;5032351;28;20014;-64
2023/08/23 07:13:46;;;;;;;38.08;17.05;;;;;;;;;;5031934;28;20132;-64
2023/08/23 07:16:11;;;;;;;32.53;16.58;;;;;;;;;;5049311;28;20017;-65
2023/08/23 07:18:37;;;;;;;34.92;16.20;;;;;;;;;;5050455;28;20381;-63
2023/08/23 07:21:03;;;;;;;34.22;16.85;;;;;;;;;;5040655;28;20136;-62
2023/08/23 07:23:28;;;;;;;33.80;15.65;;;;;;;;;;5031913;28;20041;-62
2023/08/23 07:25:54;;;;;;;25.13;14.25;;;;;;;;;;5030999;28;20507;-61
2023/08/23 07:28:19;;;;;;;32.60;14.32;;;;;;;;;;5031486;28;20017;-61
2023/08/23 07:30:49;;;;;;;28.42;14.40;;;;;;;;;;5032106;28;20014;-62
2023/08/23 07:33:15;;;;;;;24.80;13.77;;;;;;;;;;5034359;28;20095;-61
2023/08/23 07:35:40;;;;;;;24.48;13.23;;;;;;;;;;5035470;28;20052;-61
2023/08/23 07:38:05;;;;;;;22.73;11.88;;;;;;;;;;5035519;28;20013;-61
2023/08/23 07:40:31;;;;;;;18.77;10.60;;;;;;;;;;5035223;28;20096;-61
2023/08/23 07:42:56;;;;;;;20.58;11.32;;;;;;;;;;5035526;28;20025;-60
2023/08/23 07:45:21;;;;;;;20.33;10.55;;;;;;;;;;5035473;28;20072;-61
2023/08/23 07:47:47;;;;;;;19.40;10.70;;;;;;;;;;5035422;28;20024;-60
2023/08/23 07:50:12;;;;;;;17.42;9.65;;;;;;;;;;5035104;28;20521;-60
2023/08/23 07:52:37;;;;;;;15.57;9.32;;;;;;;;;;5035281;28;20041;-61
2023/08/23 07:55:05;;;;;;;16.80;9.25;;;;;;;;;;5034722;28;20078;-60
2023/08/23 07:57:30;;;;;;;17.33;9.52;;;;;;;;;;5035260;28;20458;-60
2023/08/23 07:59:55;;;;;;;18.35;8.90;;;;;;;;;;5034965;28;20096;-60
2023/08/23 08:02:21;;;;;;;16.52;8.45;;;;;;;;;;5035132;28;20029;-60
2023/08/23 08:04:47;;;;;;;17.23;9.43;;;;;;;;;;5034564;28;20448;-60
2023/08/23 08:07:12;;;;;;;16.83;9.15;;;;;;;;;;5034808;28;20429;-61
2023/08/23 08:09:37;;;;;;;17.17;9.60;;;;;;;;;;5034736;28;20022;-60
2023/08/23 08:12:02;;;;;;;17.17;9.70;;;;;;;;;;5034995;28;20033;-61
2023/08/23 08:14:28;;;;;;;18.23;9.85;;;;;;;;;;5034442;28;20021;-60
2023/08/23 08:16:53;;;;;;;21.05;9.98;;;;;;;;;;5035467;28;20302;-60
2023/08/23 08:19:18;;;;;;;15.77;9.05;;;;;;;;;;5034796;28;20040;-60
2023/08/23 08:21:44;;;;;;;16.45;9.25;;;;;;;;;;5034436;28;20074;-60
2023/08/23 08:24:09;;;;;;;16.25;8.82;;;;;;;;;;5034396;28;20017;-60
2023/08/23 08:26:34;;;;;;;16.50;8.55;;;;;;;;;;5034289;28;20064;-60
2023/08/23 08:28:59;;;;;;;12.73;8.30;;;;;;;;;;5034375;28;20075;-60
2023/08/23 08:31:25;;;;;;;17.08;9.23;;;;;;;;;;5034571;28;20021;-60
2023/08/23 08:33:50;;;;;;;13.90;8.20;;;;;;;;;;5034626;28;20113;-61
2023/08/23 08:36:15;;;;;;;14.70;8.70;;;;;;;;;;5034510;28;20408;-62
2023/08/23 08:38:41;;;;;;;13.75;7.95;;;;;;;;;;5034450;28;20401;-61
2023/08/23 08:41:08;;;;;;;13.05;8.40;;;;;;;;;;5034385;28;20438;-60
2023/08/23 08:43:34;;;;;;;17.85;7.95;;;;;;;;;;5034078;28;20017;-60
2023/08/23 08:45:59;;;;;;;11.80;7.82;;;;;;;;;;5034158;28;20021;-62
2023/08/23 08:48:24;;;;;;;15.57;8.75;;;;;;;;;;5033660;28;20410;-60
2023/08/23 08:50:50;;;;;;;12.55;8.02;;;;;;;;;;5034217;28;20085;-60
2023/08/23 08:53:17;;;;;;;11.57;6.38;;;;;;;;;;5033925;28;20021;-60
2023/08/23 08:55:43;;;;;;;8.30;4.85;;;;;;;;;;5033861;28;20021;-60
2023/08/23 08:58:09;;;;;;;10.70;4.85;;;;;;;;;;5033904;28;20029;-61
2023/08/23 09:00:34;;;;;;;9.27;4.47;;;;;;;;;;5034134;28;20021;-61
2023/08/23 09:03:00;;;;;;;8.00;4.60;;;;;;;;;;5034035;28;20022;-61
2023/08/23 09:05:25;;;;;;;8.88;4.78;;;;;;;;;;5032283;28;20072;-60
2023/08/23 09:07:51;;;;;;;11.48;4.80;;;;;;;;;;5043104;28;20086;-60
2023/08/23 09:10:16;;;;;;;8.45;4.45;;;;;;;;;;5052243;28;20104;-62
2023/08/23 09:12:42;;;;;;;9.20;4.15;;;;;;;;;;5040410;28;20013;-60
2023/08/23 09:15:07;;;;;;;9.65;4.70;;;;;;;;;;5033688;28;20162;-61
2023/08/23 09:17:33;;;;;;;9.07;4.32;;;;;;;;;;5033759;28;20021;-60
2023/08/23 09:19:59;;;;;;;8.93;4.40;;;;;;;;;;5033359;28;20516;-60
2023/08/23 09:22:24;;;;;;;9.80;4.45;;;;;;;;;;5033605;28;20018;-60
2023/08/23 09:24:49;;;;;;;8.23;4.30;;;;;;;;;;5042138;28;20017;-61
2023/08/23 09:27:15;;;;;;;6.78;4.35;;;;;;;;;;5052375;28;20013;-60
2023/08/23 09:29:41;;;;;;;7.80;4.00;;;;;;;;;;5039796;28;20924;-61
2023/08/23 09:32:06;;;;;;;7.22;3.70;;;;;;;;;;5033347;28;20445;-60
2023/08/23 09:34:31;;;;;;;7.85;3.38;;;;;;;;;;5032387;28;22236;-62
2023/08/23 09:37:06;;;;;;;6.90;3.30;;;;;;;;;;5032940;28;20024;-60
2023/08/23 09:39:32;;;;;;;5.90;3.00;;;;;;;;;;5033672;28;20024;-60
2023/08/23 09:42:03;;;;;;;6.78;2.85;;;;;;;;;;5032992;28;20517;-62
2023/08/23 09:44:29;;;;;;;6.13;2.80;;;;;;;;;;5032954;28;20032;-61
2023/08/23 09:46:56;;;;;;;6.03;3.15;;;;;;;;;;5032900;28;20473;-61
2023/08/23 09:49:22;;;;;;;6.15;2.80;;;;;;;;;;5028917;28;20023;-60
2023/08/23 09:51:48;;;;;;;9.02;3.30;;;;;;;;;;5033073;28;20635;-61
2023/08/23 09:54:16;;;;;;;6.70;3.70;;;;;;;;;;5032711;28;20009;-60
2023/08/23 09:56:44;;;;;;;7.45;3.45;;;;;;;;;;5032539;28;20530;-60
2023/08/23 09:59:10;;;;;;;8.30;3.20;;;;;;;;;;5032919;28;20021;-61
2023/08/23 10:01:35;;;;;;;6.78;2.13;;;;;;;;;;5032759;28;20530;-60
2023/08/23 10:04:01;;;;;;;4.28;2.17;;;;;;;;;;5032340;28;20064;-60
2023/08/23 10:06:27;;;;;;;5.85;2.50;;;;;;;;;;5032858;28;20033;-61
2023/08/23 10:08:52;;;;;;;5.80;2.53;;;;;;;;;;5032889;28;20468;-60
2023/08/23 10:11:18;;;;;;;5.28;2.75;;;;;;;;;;5049465;28;20043;-62
2023/08/23 10:13:44;;;;;;;5.30;1.70;;;;;;;;;;5044180;28;20017;-60
2023/08/23 10:16:12;;;;;;;3.90;2.03;;;;;;;;;;5032795;28;20105;-61
2023/08/23 10:18:37;;;;;;;5.47;2.60;;;;;;;;;;5032749;28;20404;-60
2023/08/23 10:21:03;;;;;;;7.32;2.20;;;;;;;;;;5032495;28;20028;-60
2023/08/23 10:23:29;;;;;;;5.10;1.92;;;;;;;;;;5032417;28;20381;-60
2023/08/23 10:25:54;;;;;;;4.38;2.10;;;;;;;;;;5050349;28;20103;-62
2023/08/23 10:28:19;;;;;;;5.28;2.00;;;;;;;;;;5050499;28;20353;-60
2023/08/23 10:30:49;;;;;;;6.65;1.90;;;;;;;;;;5032675;28;20010;-61
2023/08/23 10:33:15;;;;;;;7.32;2.45;;;;;;;;;;5051098;28;20556;-61
2023/08/23 10:35:44;;;;;;;5.68;1.95;;;;;;;;;;5051144;28;20048;-61
2023/08/23 10:38:09;;;;;;;4.95;1.95;;;;;;;;;;5050812;28;20013;-62
2023/08/23 10:40:36;;;;;;;2.95;1.67;;;;;;;;;;5051116;28;20510;-61
2023/08/23 10:43:14;;;;;;;6.53;1.90;;;;;;;;;;5045976;28;20059;-61
2023/08/23 10:45:58;;;;;;;6.25;1.40;;;;;;;;;;5051075;28;20021;-62
2023/08/23 10:48:23;;;;;;;5.72;1.23;;;;;;;;;;5050925;28;20013;-61
2023/08/23 10:50:49;;;;;;;4.53;1.00;;;;;;;;;;5035008;28;20183;-62
2023/08/23 10:53:15;;;;;;;2.30;0.85;;;;;;;;;;5032440;28;20508;-62
2023/08/23 10:55:40;;;;;;;3.00;0.68;;;;;;;;;;5032109;28;20096;-62
2023/08/23 10:58:06;;;;;;;2.20;0.57;;;;;;;;;;5032310;28;20021;-62
2023/08/23 11:00:31;;;;;;;2.70;1.00;;;;;;;;;;5032107;28;20021;-63
2023/08/23 11:02:56;;;;;;;2.03;0.60;;;;;;;;;;5031061;28;20032;-62
2023/08/23 11:05:22;;;;;;;3.50;0.80;;;;;;;;;;5031549;28;20085;-64
2023/08/23 11:07:47;;;;;;;2.35;0.70;;;;;;;;;;5034197;28;20062;-64
2023/08/23 11:10:12;;;;;;;4.17;0.90;;;;;;;;;;5034974;28;20021;-64
2023/08/23 11:12:38;;;;;;;2.92;0.77;;;;;;;;;;5036099;28;20263;-64
2023/08/23 11:15:04;;;;;;;2.67;0.60;;;;;;;;;;5036000;28;20028;-64
2023/08/23 11:17:29;;;;;;;3.47;0.85;;;;;;;;;;5035424;28;20045;-65
2023/08/23 11:19:55;;;;;;;2.63;1.23;;;;;;;;;;5035288;28;20017;-64
2023/08/23 11:22:23;;;;;;;4.35;1.10;;;;;;;;;;5034886;28;20063;-66
2023/08/23 11:24:48;;;;;;;6.25;1.15;;;;;;;;;;5035891;28;20192;-64
2023/08/23 11:27:14;;;;;;;3.45;1.10;;;;;;;;;;5035694;28;20512;-65
2023/08/23 11:29:42;;;;;;;3.28;1.00;;;;;;;;;;5035603;28;20009;-65
2023/08/23 11:32:08;;;;;;;5.75;1.20;;;;;;;;;;5035422;28;20016;-64
2023/08/23 11:34:33;;;;;;;4.53;1.20;;;;;;;;;;5032889;28;20025;-64
2023/08/23 11:36:58;;;;;;;2.38;1.10;;;;;;;;;;5035693;28;20377;-65
2023/08/23 11:39:24;;;;;;;4.13;1.20;;;;;;;;;;5031611;28;20528;-69
2023/08/23 11:41:50;;;;;;;3.22;1.00;;;;;;;;;;5035582;28;20487;-69
2023/08/23 11:44:15;;;;;;;3.50;1.10;;;;;;;;;;5035375;28;20542;-68
2023/08/23 11:46:40;;;;;;;4.00;1.25;;;;;;;;;;5035114;28;20088;-69
2023/08/23 11:49:09;;;;;;;5.18;1.35;;;;;;;;;;5041325;28;20428;-69
2023/08/23 11:51:48;;;;;;;5.03;1.20;;;;;;;;;;5041109;28;20010;-69
2023/08/23 11:54:13;;;;;;;2.95;1.25;;;;;;;;;;5035260;28;20028;-69
2023/08/23 11:56:39;;;;;;;3.35;1.10;;;;;;;;;;5034935;28;20093;-69
2023/08/23 11:59:04;;;;;;;4.90;1.15;;;;;;;;;;5035240;28;20021;-69
2023/08/23 12:01:30;;;;;;;3.13;1.20;;;;;;;;;;5035296;28;20404;-69
2023/08/23 12:03:55;;;;;;;2.97;1.00;;;;;;;;;;5034576;28;20390;-69
2023/08/23 12:06:20;;;;;;;2.97;1.10;;;;;;;;;;5034753;28;20573;-70
2023/08/23 12:08:46;;;;;;;4.15;1.00;;;;;;;;;;5034970;28;20013;-70
2023/08/23 12:11:11;;;;;;;3.80;0.93;;;;;;;;;;5035039;28;20091;-69
2023/08/23 12:13:37;;;;;;;2.90;0.90;;;;;;;;;;5034922;28;20049;-69
2023/08/23 12:16:02;;;;;;;5.95;0.98;;;;;;;;;;5034925;28;20500;-70
2023/08/23 12:18:28;;;;;;;2.03;0.80;;;;;;;;;;5034310;28;20100;-69
2023/08/23 12:20:53;;;;;;;4.03;1.10;;;;;;;;;;5034475;28;20048;-70
2023/08/23 12:23:18;;;;;;;2.33;1.02;;;;;;;;;;5034860;28;20096;-71
2023/08/23 12:25:43;;;;;;;2.60;0.90;;;;;;;;;;5034681;28;20371;-70
2023/08/23 12:28:09;;;;;;;3.15;1.00;;;;;;;;;;5034524;28;20017;-71
2023/08/23 12:30:34;;;;;;;4.03;0.90;;;;;;;;;;5034636;28;20010;-69
2023/08/23 12:32:59;;;;;;;2.10;0.85;;;;;;;;;;5034458;28;20434;-70
2023/08/23 12:35:24;;;;;;;3.35;1.10;;;;;;;;;;5034452;28;20390;-69
2023/08/23 12:37:50;;;;;;;4.73;1.60;;;;;;;;;;5033986;28;20033;-69
2023/08/23 12:40:15;;;;;;;3.80;1.20;;;;;;;;;;5040086;28;20342;-70
2023/08/23 12:42:40;;;;;;;3.80;0.90;;;;;;;;;;5052978;28;20338;-71
2023/08/23 12:45:06;;;;;;;3.60;0.93;;;;;;;;;;5052784;28;20021;-71
2023/08/23 12:47:31;;;;;;;3.40;0.90;;;;;;;;;;5052587;28;20012;-71
2023/08/23 12:49:56;;;;;;;4.32;0.90;;;;;;;;;;5037422;28;20022;-65
2023/08/23 12:52:21;;;;;;;4.65;1.05;;;;;;;;;;5034201;28;20025;-66
2023/08/23 12:54:46;;;;;;;2.03;0.80;;;;;;;;;;5036429;28;20547;-66
2023/08/23 12:57:12;;;;;;;1.67;0.82;;;;;;;;;;5035628;28;20590;-67
2023/08/23 12:59:37;;;;;;;5.18;0.80;;;;;;;;;;5042106;28;20017;-65
2023/08/23 13:02:03;;;;;;;3.85;0.95;;;;;;;;;;5038459;28;20394;-65
2023/08/23 13:04:28;;;;;;;2.92;0.95;;;;;;;;;;5033544;28;20069;-66
2023/08/23 13:06:53;;;;;;;3.75;1.00;;;;;;;;;;5041721;28;20022;-65
2023/08/23 13:09:19;;;;;;;3.47;1.27;;;;;;;;;;5052422;28;20009;-65
2023/08/23 13:11:45;;;;;;;2.72;0.90;;;;;;;;;;5051957;28;20274;-65
2023/08/23 13:14:10;;;;;;;5.25;1.05;;;;;;;;;;5036847;28;20071;-65
2023/08/23 13:16:35;;;;;;;2.13;0.80;;;;;;;;;;5033659;28;20052;-66
2023/08/23 13:19:00;;;;;;;3.13;1.10;;;;;;;;;;5033167;28;20017;-66
2023/08/23 13:21:26;;;;;;;4.25;1.00;;;;;;;;;;5032095;28;20028;-66
2023/08/23 13:23:51;;;;;;;4.28;1.13;;;;;;;;;;5032057;28;20021;-65
2023/08/23 13:26:16;;;;;;;4.03;0.90;;;;;;;;;;5033469;28;20105;-64
2023/08/23 13:28:42;;;;;;;2.90;0.98;;;;;;;;;;5033478;28;20013;-65
2023/08/23 13:31:07;;;;;;;2.27;0.80;;;;;;;;;;5036379;28;20023;-65
2023/08/23 13:33:33;;;;;;;6.03;0.93;;;;;;;;;;5037374;28;20306;-64
2023/08/23 13:35:59;;;;;;;4.65;1.05;;;;;;;;;;5033375;28;20018;-66
2023/08/23 13:38:24;;;;;;;2.45;1.00;;;;;;;;;;5033106;28;20025;-67
2023/08/23 13:40:49;;;;;;;2.97;0.90;;;;;;;;;;5033248;28;20071;-65
2023/08/23 13:43:14;;;;;;;3.80;0.88;;;;;;;;;;5032480;28;20355;-68
2023/08/23 13:45:43;;;;;;;3.22;0.90;;;;;;;;;;5032746;28;20070;-67
2023/08/23 13:48:08;;;;;;;3.78;0.80;;;;;;;;;;5033086;28;20033;-66
2023/08/23 13:50:33;;;;;;;2.60;1.00;;;;;;;;;;5032885;28;20013;-65
2023/08/23 13:52:58;;;;;;;4.05;0.90;;;;;;;;;;5045359;28;20021;-66
2023/08/23 13:55:26;;;;;;;3.05;1.02;;;;;;;;;;5051429;28;20025;-65
2023/08/23 13:57:51;;;;;;;6.28;1.48;;;;;;;;;;5051556;28;20060;-67
2023/08/23 14:00:17;;;;;;;4.30;1.20;;;;;;;;;;5042718;28;20059;-65
2023/08/23 14:02:42;;;;;;;3.38;1.00;;;;;;;;;;5051158;28;20533;-66
2023/08/23 14:05:08;;;;;;;2.17;0.88;;;;;;;;;;5038840;28;20045;-66
2023/08/23 14:07:33;;;;;;;2.33;1.00;;;;;;;;;;5047379;28;20029;-66
2023/08/23 14:09:58;;;;;;;5.15;1.10;;;;;;;;;;5035961;28;20491;-74
2023/08/23 14:12:23;;;;;;;4.95;0.82;;;;;;;;;;5032781;28;20013;-75
2023/08/23 14:14:48;;;;;;;4.18;0.90;;;;;;;;;;5032347;28;20481;-74
2023/08/23 14:17:14;;;;;;;2.47;0.80;;;;;;;;;;5032728;28;20355;-74
2023/08/23 14:19:43;;;;;;;3.42;1.00;;;;;;;;;;5032740;28;20076;-70
2023/08/23 14:22:08;;;;;;;7.40;1.17;;;;;;;;;;5050848;28;20025;-67